• Join FlightAware (Why Join?)
  • Login
  • US Flag 
10:52AM EDT


 

Airport Tracker/Info


-or-


 

Live Flight TrackerFlight Track Log ✈ FIN666 ✈ 09-Jun-2014 ✈ EKCH / CPH - EFHK / HEL

Flight Track Log - Related Links

Times and Time Zones

All times are in EDT time to prevent confusion due to time zone crossing. See the FIN666 flight status page for this flight to view local times or setup timezone preferences in your user account.

Time Position Orientation Groundspeed Altitude Reporting Facility
EDT Latitude Longitude Course Direction KTS MPH feet Rate Location/Type
07:28AM 55.8272 13.0881 49° Northeast  Level Estimated
07:29AM 55.8966 13.2332 49° Northeast  Level Estimated
07:30AM 55.9658 13.3788 50° Northeast  Level Estimated
07:31AM 56.0455 13.5474 50° Northeast  Level Estimated
07:32AM 56.1249 13.7168 50° Northeast  Level Estimated
07:33AM 56.2041 13.8868 50° Northeast  Level Estimated
07:34AM 56.2831 14.0576 50° Northeast  Level Estimated
07:35AM 56.3618 14.2290 50° Northeast  Level Estimated
07:36AM 56.4403 14.4012 50° Northeast  Level Estimated
07:37AM 56.5186 14.5741 51° Northeast  Level Estimated
07:38AM 56.5966 14.7477 51° Northeast  Level Estimated
07:39AM 56.6744 14.9220 51° Northeast  Level Estimated
07:40AM 56.7519 15.0970 51° Northeast  Level Estimated
07:41AM 56.8292 15.2727 51° Northeast  Level Estimated
07:42AM 56.9063 15.4492 51° Northeast  Level Estimated
07:43AM 56.9831 15.6264 51° Northeast  Level Estimated
07:44AM 57.0596 15.8043 52° Northeast  Level Estimated
07:45AM 57.1336 15.9777 52° Northeast  Level Estimated
07:46AM 57.2074 16.1517 52° Northeast  Level Estimated
07:47AM 57.2809 16.3264 52° Northeast  Level Estimated
07:48AM 57.3542 16.5018 52° Northeast  Level Estimated
07:49AM 57.4272 16.6779 52° Northeast  Level Estimated
07:50AM 57.5000 16.8547 52° Northeast  Level Estimated
07:51AM 57.5726 17.0322 53° Northeast  Level Estimated
07:52AM 57.6449 17.2105 53° Northeast  Level Estimated
07:53AM 57.7169 17.3894 53° Northeast  Level Estimated
07:54AM 57.7887 17.5691 53° Northeast  Level Estimated
07:55AM 57.8603 17.7494 53° Northeast  Level Estimated
07:56AM 57.9316 17.9305 53° Northeast  Level Estimated
07:57AM 58.0026 18.1123 54° Northeast  Level Estimated
07:58AM 58.0733 18.2948 54° Northeast  Level Estimated
07:59AM 58.1438 18.4781 54° Northeast  Level Estimated
08:00AM 58.2141 18.6621 54° Northeast  Level Estimated
08:01AM 58.2841 18.8468 54° Northeast  Level Estimated
08:02AM 58.3538 19.0322 54° Northeast  Level Estimated
08:03AM 58.4232 19.2183 54° Northeast  Level Estimated
08:04AM 58.4924 19.4052 55° Northeast  Level Estimated
08:05AM 58.5612 19.5929 55° Northeast  Level Estimated
08:06AM 58.6299 19.7812 55° Northeast  Level Estimated
08:07AM 58.6982 19.9704 55° Northeast  Level Estimated
08:08AM 58.7663 20.1602 55° Northeast  Level Estimated
08:09AM 58.8341 20.3508 55° Northeast  Level Estimated
08:10AM 58.9016 20.5422 56° Northeast  Level Estimated
08:11AM 58.9688 20.7342 56° Northeast  Level Estimated
08:12AM 59.0357 20.9271 56° Northeast  Level Estimated
08:13AM 59.1023 21.1207 56° Northeast  Level Estimated
08:14AM 59.1687 21.3150 56° Northeast  Level Estimated
08:15AM 59.2348 21.5101 56° Northeast  Level Estimated
08:16AM 59.3005 21.7059 57° Northeast  Level Estimated
08:17AM 59.3660 21.9026 57° Northeast  Level Estimated
08:18AM 59.4312 22.0999 57° Northeast  Level Estimated
08:19AM 59.4961 22.2980 57° Northeast  Level Estimated
08:20AM 59.5606 22.4969 57° Northeast  Level Estimated
08:21AM 59.6249 22.6966 57° Northeast  Level Estimated
08:22AM 59.6889 22.8970 58° Northeast  Level Estimated
08:23AM 59.7535 23.1012 58° Northeast  Level Estimated
08:24AM 59.8178 23.3063 58° Northeast  Level Estimated
08:25AM 59.8818 23.5121 58° Northeast  Level Estimated
08:26AM 59.9455 23.7187 58° Northeast  Level Estimated
08:27AM 60.0088 23.9261 59° Northeast  Level Estimated
08:28AM 60.0718 24.1343 59° Northeast  Level Estimated
08:29AM 60.1345 24.3433 59° Northeast  Level Estimated
08:30AM 60.1969 24.5530 59° Northeast  Level Estimated
08:31AM 60.2589 24.7636 59° Northeast  Level Estimated
08:32AM 60.3172 24.9633 59° Northeast  Level Estimated
08:33AM 60.3172 24.9633 North  Level Estimated
08:34AM 60.3172 24.9633 North  Level Estimated
08:35AM 60.3172 24.9633 North  Level Estimated
08:36AM 60.3172 24.9633 North  Level Estimated
08:37AM 60.3172 24.9633 North  Level Estimated
08:38AM 60.3172 24.9633 North  Level Estimated
08:39AM 60.3172 24.9633 North  Level Estimated
08:40AM 60.3172 24.9633 North  Level Estimated
08:41AM 60.3172 24.9633 North  Level Estimated
08:42AM 60.3172 24.9633 North  Level Estimated
08:43AM 60.3172 24.9633 North  Level Estimated
08:44AM 60.3172 24.9633 North  Level Estimated